Accueil
METAR-TAF:

METAR-TAF

Aéroports :

Aéroport international de Yap

Yap, Micronésie

latitude: 09-29N, longitude: 138-05E, altitude: 28 m

Observation

Le bulletin a été fait il y a 1 heure et 7 minutes, à 12:51 UTC
Vent 3 kt de direction variable
Température 26°C
Humidité 84%
Pression 1014 hPa
Visibilité: 19.3 km
Quelques nuages à une hauteur de 1600 ft
Nuages épars à une hauteur de 13000 ft
Nuages fragmentés à une hauteur de 30000 ft

METAR: PTYA 161251Z VRB03KT 12SM FEW016 SCT130 BKN300 26/23 A2994 RMK SLP140 T02640225

Heure: 23:58 (13:58 UTC)

Prévision

Le bulletin a été fait il y a 2 heures et 38 minutes, à 11:20 UTC
Prévision valable du 16 à 12 UTC au 17 à 12 UTC
Vent 11 kt de nord-est
Visibilité: 10 km
Quelques nuages à une hauteur de 1800 ft
averses à proximité

TAF: PTYA 161120Z 1612/1712 04011KT P6SM VCSH FEW018

Observations et prévisions météorologiques de plus de 4000 aéroports (messages METAR et TAF).

Les stations disponibles sont représentées par des disques jaunes et rouges sur la carte.

Passer la souris dessus pour voir le nom de la station.

Cliquer dessus pour voir les observations et prévisions météorologiques.

Pour changer de carte: cliquez sur les boutons verts avec une croix noire pour zoomer, sur le bouton vert avec un tiret pour effectuer un zoom arrière, ou sur les flèches vertes pour les cartes adjacentes.


METAR-TAF: